createdAt,value
2019-01-19T00:01:37.950Z,2.67
2019-01-19T00:04:24.222Z,2.23
2019-01-19T00:07:06.183Z,2.20
2019-01-19T00:09:35.930Z,2.47
2019-01-19T00:12:08.509Z,2.10
2019-01-19T00:14:36.785Z,2.83
2019-01-19T00:17:18.657Z,2.80
2019-01-19T00:19:57.144Z,2.57
2019-01-19T00:22:38.532Z,2.40
2019-01-19T00:27:56.139Z,2.70
2019-01-19T00:30:25.869Z,2.60
2019-01-19T00:32:58.604Z,2.80
2019-01-19T00:35:28.525Z,2.83
2019-01-19T00:38:01.206Z,2.90
2019-01-19T00:40:33.801Z,2.27
2019-01-19T00:43:02.376Z,2.77
2019-01-19T00:45:48.789Z,2.77
2019-01-19T00:48:18.489Z,2.20
2019-01-19T00:50:54.288Z,2.43
2019-01-19T00:53:29.978Z,2.63
2019-01-19T00:56:02.453Z,2.60
2019-01-19T00:58:32.217Z,3.60
2019-01-19T01:01:01.974Z,2.67
2019-01-19T01:03:40.664Z,2.30
2019-01-19T01:06:10.363Z,2.67
2019-01-19T01:08:56.748Z,2.70
2019-01-19T01:11:26.433Z,2.50
2019-01-19T01:13:56.131Z,2.83
2019-01-19T01:16:25.871Z,4.17
2019-01-19T01:19:01.565Z,2.80
2019-01-19T01:21:48.038Z,3.67
2019-01-19T01:24:32.714Z,2.57
2019-01-19T01:27:14.706Z,2.87
2019-01-19T01:29:44.409Z,2.37
2019-01-19T01:32:16.997Z,2.77
2019-01-19T01:34:46.713Z,2.40
2019-01-19T01:37:25.348Z,2.77
2019-01-19T01:40:00.913Z,2.57
2019-01-19T01:42:42.779Z,2.67
2019-01-19T01:45:15.578Z,2.73
2019-01-19T01:48:00.593Z,3.13
2019-01-19T01:50:32.962Z,3.00
2019-01-19T01:53:17.869Z,2.83
2019-01-19T01:55:46.024Z,2.77
2019-01-19T01:58:15.709Z,3.07
2019-01-19T02:00:45.375Z,3.27
2019-01-19T02:03:15.033Z,2.93
2019-01-19T02:05:44.718Z,2.80
2019-01-19T02:08:20.331Z,2.90
2019-01-19T02:10:49.996Z,3.00
2019-01-19T02:13:21.358Z,2.97
2019-01-19T02:16:00.316Z,2.50
2019-01-19T02:18:30.029Z,2.80
2019-01-19T02:20:59.694Z,2.83
2019-01-19T02:23:29.348Z,2.53
2019-01-19T02:26:04.960Z,3.00
2019-01-19T02:28:34.644Z,3.37
2019-01-19T02:31:07.287Z,3.20
2019-01-19T02:33:40.170Z,3.03
2019-01-19T02:36:09.919Z,3.27
2019-01-19T02:38:51.877Z,2.70
2019-01-19T02:41:24.494Z,2.93
2019-01-19T02:43:57.085Z,3.00
2019-01-19T02:46:41.798Z,3.00
2019-01-19T02:49:20.477Z,3.30
2019-01-19T02:52:07.171Z,3.20
2019-01-19T02:54:53.433Z,3.50
2019-01-19T02:57:25.828Z,3.70
2019-01-19T02:59:58.917Z,3.23
2019-01-19T03:02:38.058Z,3.33
2019-01-19T03:05:11.027Z,3.73
2019-01-19T03:07:40.763Z,3.40
2019-01-19T03:10:13.201Z,3.57
2019-01-19T03:12:51.981Z,3.20
2019-01-19T03:15:21.677Z,3.47
2019-01-19T03:17:57.185Z,3.50
2019-01-19T03:20:38.793Z,3.10
2019-01-19T03:23:11.226Z,3.80
2019-01-19T03:25:57.877Z,3.97
2019-01-19T03:28:27.609Z,4.60
2019-01-19T03:31:03.193Z,4.60
2019-01-19T03:33:44.690Z,4.77
2019-01-19T03:36:14.357Z,5.17
2019-01-19T03:38:44.418Z,5.47
2019-01-19T03:41:26.937Z,4.50
2019-01-19T03:44:05.597Z,4.27
2019-01-19T03:46:51.979Z,3.60
2019-01-19T03:49:24.400Z,4.30
2019-01-19T03:51:56.953Z,4.40
2019-01-19T03:54:26.632Z,3.50
2019-01-19T03:56:56.323Z,3.97
2019-01-19T03:59:34.872Z,3.97
2019-01-19T04:02:16.821Z,4.37
2019-01-19T04:04:49.593Z,4.03
2019-01-19T04:07:25.190Z,4.03
2019-01-19T04:09:57.549Z,4.53
2019-01-19T04:12:43.991Z,4.43
2019-01-19T04:15:30.101Z,4.17
2019-01-19T04:17:59.799Z,3.90
2019-01-19T04:20:38.440Z,4.70
2019-01-19T04:23:06.953Z,4.00
2019-01-19T04:25:38.965Z,4.37
2019-01-19T04:28:07.280Z,3.77
2019-01-19T04:30:36.029Z,3.83
2019-01-19T04:33:04.203Z,4.13
2019-01-19T04:35:32.342Z,4.37
2019-01-19T04:38:00.473Z,4.17
2019-01-19T04:40:28.667Z,3.63
2019-01-19T04:42:56.819Z,3.60
2019-01-19T04:45:25.008Z,3.93
2019-01-19T04:47:53.149Z,3.77
2019-01-19T04:50:21.283Z,3.77
2019-01-19T04:52:49.457Z,3.47
2019-01-19T04:55:17.557Z,3.47
2019-01-19T04:57:45.713Z,3.40
2019-01-19T05:00:15.207Z,3.37
2019-01-19T05:02:43.329Z,3.33
2019-01-19T05:05:11.452Z,3.70
2019-01-19T05:07:39.661Z,3.67
2019-01-19T05:10:09.296Z,3.60
2019-01-19T05:12:37.402Z,3.47
2019-01-19T05:15:07.042Z,3.40
2019-01-19T05:17:35.561Z,3.40
2019-01-19T05:20:05.022Z,4.30
2019-01-19T05:22:33.159Z,3.77
2019-01-19T05:25:01.396Z,4.53
2019-01-19T05:27:29.689Z,3.90
2019-01-19T05:29:57.796Z,4.17
2019-01-19T05:32:26.506Z,4.23
2019-01-19T05:34:54.801Z,4.37
2019-01-19T05:37:22.957Z,4.30
2019-01-19T05:39:51.094Z,4.30
2019-01-19T05:42:19.278Z,4.30
2019-01-19T05:44:47.408Z,4.70
2019-01-19T05:47:15.549Z,4.17
2019-01-19T05:49:43.653Z,4.50
2019-01-19T05:52:11.766Z,4.90
2019-01-19T05:54:39.897Z,4.40
2019-01-19T05:57:08.019Z,4.50
2019-01-19T05:59:36.185Z,4.57
2019-01-19T06:02:04.356Z,4.80
2019-01-19T06:04:32.472Z,4.63
2019-01-19T06:07:00.611Z,5.00
2019-01-19T06:09:28.781Z,4.83
2019-01-19T06:11:56.918Z,4.73
2019-01-19T06:14:25.053Z,4.60
2019-01-19T06:16:53.164Z,4.80
2019-01-19T06:19:21.561Z,4.87
2019-01-19T06:21:51.320Z,4.50
2019-01-19T06:24:19.421Z,5.03
2019-01-19T06:26:47.556Z,4.60
2019-01-19T06:29:15.728Z,4.43
2019-01-19T06:31:43.829Z,4.63
2019-01-19T06:34:11.944Z,4.87
2019-01-19T06:36:40.079Z,5.20
2019-01-19T06:39:08.974Z,4.77
2019-01-19T06:41:37.157Z,5.00
2019-01-19T06:44:05.354Z,4.67
2019-01-19T06:46:33.554Z,5.27
2019-01-19T06:49:01.771Z,5.47
2019-01-19T06:51:29.940Z,5.50
2019-01-19T06:54:01.706Z,5.17
2019-01-19T06:56:28.698Z,5.73
2019-01-19T06:58:56.817Z,4.93
2019-01-19T07:01:24.979Z,6.00
2019-01-19T07:03:53.090Z,5.13
2019-01-19T07:06:21.241Z,5.60
2019-01-19T07:08:49.474Z,5.63
2019-01-19T07:11:17.632Z,6.10
2019-01-19T07:13:45.760Z,5.40
2019-01-19T07:16:13.897Z,5.93
2019-01-19T07:18:42.029Z,5.30
2019-01-19T07:21:10.181Z,5.73
2019-01-19T07:23:38.313Z,6.53
2019-01-19T07:26:06.468Z,6.37
2019-01-19T07:28:34.606Z,5.70
2019-01-19T07:31:02.779Z,10.30
2019-01-19T07:33:30.893Z,19.33
2019-01-19T07:35:59.021Z,8.10
2019-01-19T07:38:27.175Z,7.33
2019-01-19T07:40:55.289Z,6.03
2019-01-19T07:43:23.879Z,6.10
2019-01-19T07:45:51.996Z,7.70
2019-01-19T07:48:20.143Z,9.87
2019-01-19T07:50:48.287Z,7.57
2019-01-19T07:53:16.490Z,6.93
2019-01-19T07:55:44.654Z,6.63
2019-01-19T07:58:12.807Z,6.40
2019-01-19T08:00:40.996Z,6.77
2019-01-19T08:03:09.186Z,6.80
2019-01-19T08:05:37.318Z,7.40
2019-01-19T08:08:05.438Z,8.20
2019-01-19T08:10:33.589Z,7.33
2019-01-19T08:13:01.798Z,8.50
2019-01-19T08:15:29.935Z,7.30
2019-01-19T08:17:58.137Z,7.80
2019-01-19T08:20:26.269Z,7.63
2019-01-19T08:22:54.393Z,7.77
2019-01-19T08:25:22.588Z,7.67
2019-01-19T08:27:50.721Z,7.97
2019-01-19T08:30:19.969Z,8.70
2019-01-19T08:32:48.140Z,7.83
2019-01-19T08:35:17.509Z,7.90
2019-01-19T08:37:45.900Z,8.47
2019-01-19T08:40:15.582Z,7.50
2019-01-19T08:42:44.317Z,7.97
2019-01-19T08:45:14.417Z,8.47
2019-01-19T08:47:42.588Z,8.07
2019-01-19T08:50:12.624Z,8.43
2019-01-19T08:52:40.805Z,9.53
2019-01-19T08:55:09.324Z,7.83
2019-01-19T08:57:37.542Z,9.10
2019-01-19T09:00:10.025Z,9.17
2019-01-19T09:02:38.147Z,8.90
2019-01-19T09:05:07.581Z,13.73
2019-01-19T09:07:35.732Z,10.13
2019-01-19T09:10:05.430Z,9.97
2019-01-19T09:12:33.656Z,11.00
2019-01-19T09:15:01.838Z,9.77
2019-01-19T09:17:30.020Z,10.53
2019-01-19T09:19:58.141Z,9.57
2019-01-19T09:22:26.253Z,9.00
2019-01-19T09:24:56.175Z,9.40
2019-01-19T09:27:24.366Z,9.33
2019-01-19T09:29:52.536Z,9.00
2019-01-19T09:32:20.749Z,10.87
2019-01-19T09:34:48.924Z,10.13
2019-01-19T09:37:17.081Z,10.23
2019-01-19T09:39:45.208Z,10.70
2019-01-19T09:42:13.365Z,10.50
2019-01-19T09:44:41.496Z,10.73
2019-01-19T09:47:09.716Z,10.27
2019-01-19T09:49:37.847Z,11.13
2019-01-19T09:52:05.989Z,10.97
2019-01-19T09:54:34.121Z,10.90
2019-01-19T09:57:02.265Z,10.77
2019-01-19T09:59:30.360Z,10.70
2019-01-19T10:01:58.536Z,11.03
2019-01-19T10:04:26.677Z,9.83
2019-01-19T10:06:54.823Z,10.40
2019-01-19T10:09:23.004Z,10.70
2019-01-19T10:11:51.173Z,11.53
2019-01-19T10:14:19.374Z,10.57
2019-01-19T10:16:47.501Z,10.50
2019-01-19T10:19:15.633Z,10.83
2019-01-19T10:21:43.810Z,10.63
2019-01-19T10:24:11.927Z,10.37
2019-01-19T10:26:40.061Z,11.00
2019-01-19T10:29:08.596Z,10.33
2019-01-19T10:31:36.799Z,11.40
2019-01-19T10:34:04.946Z,10.70
2019-01-19T10:36:33.521Z,11.90
2019-01-19T10:39:01.747Z,11.17
2019-01-19T10:41:29.971Z,10.50
2019-01-19T10:43:58.067Z,10.43
2019-01-19T10:46:26.317Z,10.20
2019-01-19T10:48:54.474Z,8.43
2019-01-19T10:51:22.617Z,11.53
2019-01-19T10:53:50.778Z,11.37
2019-01-19T10:56:21.822Z,11.90
2019-01-19T10:58:49.937Z,10.90
2019-01-19T11:01:18.085Z,11.67
2019-01-19T11:03:46.254Z,11.70
2019-01-19T11:06:14.381Z,9.87
2019-01-19T11:08:42.516Z,10.53
2019-01-19T11:11:10.659Z,10.83
2019-01-19T11:13:38.857Z,10.30
2019-01-19T11:16:07.025Z,11.10
2019-01-19T11:18:35.179Z,10.90
2019-01-19T11:21:03.518Z,10.93
2019-01-19T11:23:31.727Z,12.00
2019-01-19T11:25:59.876Z,11.57
2019-01-19T11:28:27.994Z,11.87
2019-01-19T11:30:56.104Z,12.40
2019-01-19T11:33:24.204Z,11.87
2019-01-19T11:35:53.072Z,11.53
2019-01-19T11:38:21.219Z,11.37
2019-01-19T11:40:49.340Z,12.17
2019-01-19T11:43:17.489Z,11.50
2019-01-19T11:45:45.632Z,10.77
2019-01-19T11:48:13.774Z,11.87
2019-01-19T11:50:41.886Z,10.63
2019-01-19T11:53:10.034Z,11.67
2019-01-19T11:55:38.178Z,11.10
2019-01-19T11:58:06.555Z,11.43
2019-01-19T12:00:36.201Z,11.80
2019-01-19T12:03:05.157Z,10.87
2019-01-19T12:05:33.305Z,11.37
2019-01-19T12:08:01.459Z,11.73
2019-01-19T12:10:30.360Z,11.83
2019-01-19T12:12:58.848Z,11.77
2019-01-19T12:15:27.100Z,11.13
2019-01-19T12:17:55.256Z,11.00
2019-01-19T12:20:24.579Z,11.77
2019-01-19T12:22:52.789Z,11.37
2019-01-19T12:25:22.202Z,11.13
2019-01-19T12:27:50.345Z,12.00
2019-01-19T12:30:23.160Z,12.33
2019-01-19T12:32:51.304Z,11.47
2019-01-19T12:35:19.525Z,12.93
2019-01-19T12:37:47.629Z,12.30
2019-01-19T12:40:16.945Z,12.77
2019-01-19T12:42:45.532Z,12.63
2019-01-19T12:45:17.873Z,11.70
2019-01-19T12:47:46.081Z,12.60
2019-01-19T12:50:15.773Z,11.40
2019-01-19T12:52:43.967Z,11.80
2019-01-19T12:55:12.977Z,12.23
2019-01-19T12:57:41.076Z,12.87
2019-01-19T13:00:19.363Z,11.90
2019-01-19T13:02:47.486Z,12.37
2019-01-19T13:05:17.165Z,12.47
2019-01-19T13:07:45.960Z,11.13
2019-01-19T13:10:15.662Z,11.97
2019-01-19T13:12:44.266Z,12.60
2019-01-19T13:15:14.010Z,13.77
2019-01-19T13:17:46.430Z,12.00
2019-01-19T13:20:21.850Z,11.80
2019-01-19T13:23:08.264Z,13.03
2019-01-19T13:25:39.581Z,12.13
2019-01-19T13:28:09.289Z,12.07
2019-01-19T13:30:48.048Z,12.47
2019-01-19T13:33:17.918Z,12.43
2019-01-19T13:35:47.594Z,12.03
2019-01-19T13:38:17.316Z,11.67
2019-01-19T13:41:03.707Z,12.20
2019-01-19T13:43:51.600Z,12.23
2019-01-19T13:46:30.238Z,15.70
2019-01-19T13:49:16.401Z,14.40
2019-01-19T13:51:46.086Z,12.40
2019-01-19T13:54:15.782Z,12.40
2019-01-19T13:56:45.479Z,11.60
2019-01-19T13:59:27.171Z,11.50
2019-01-19T14:02:02.631Z,11.33
2019-01-19T14:04:32.326Z,10.47
2019-01-19T14:07:11.153Z,11.33
2019-01-19T14:09:43.801Z,11.07
2019-01-19T14:12:16.208Z,10.13
2019-01-19T14:14:54.665Z,11.40
2019-01-19T14:17:26.901Z,10.30
2019-01-19T14:19:56.570Z,11.47
2019-01-19T14:22:32.454Z,11.57
2019-01-19T14:25:02.133Z,11.10
2019-01-19T14:27:34.509Z,10.43
2019-01-19T14:30:10.168Z,11.27
2019-01-19T14:32:42.793Z,11.10
2019-01-19T14:35:18.501Z,10.57
2019-01-19T14:37:48.152Z,10.27
2019-01-19T14:40:20.701Z,11.50
2019-01-19T14:42:53.281Z,11.50
2019-01-19T14:45:28.753Z,10.70
2019-01-19T14:48:07.376Z,11.30
2019-01-19T14:50:43.086Z,11.47
2019-01-19T14:53:15.530Z,10.30
2019-01-19T14:55:48.252Z,10.60
2019-01-19T14:58:17.941Z,10.23
2019-01-19T15:00:56.604Z,13.03
2019-01-19T15:03:38.249Z,11.10
2019-01-19T15:06:10.865Z,11.43
2019-01-19T15:08:43.201Z,10.07
2019-01-19T15:11:12.858Z,10.63
2019-01-19T15:13:42.635Z,10.47
2019-01-19T15:16:28.761Z,10.60
2019-01-19T15:19:15.051Z,9.80
2019-01-19T15:21:47.444Z,11.80
2019-01-19T15:24:17.131Z,10.60
2019-01-19T15:26:52.897Z,11.67
2019-01-19T15:29:25.674Z,12.40
2019-01-19T15:31:58.316Z,11.60
2019-01-19T15:34:28.031Z,12.27
2019-01-19T15:36:57.703Z,11.37
2019-01-19T15:39:30.315Z,12.60
2019-01-19T15:42:00.002Z,11.03
2019-01-19T15:44:41.797Z,11.27
2019-01-19T15:47:23.644Z,11.67
2019-01-19T15:49:53.312Z,11.10
2019-01-19T15:52:31.973Z,10.47
2019-01-19T15:55:18.177Z,11.10
2019-01-19T15:57:47.925Z,12.00
2019-01-19T16:00:20.305Z,11.30
2019-01-19T16:02:50.097Z,10.67
2019-01-19T16:05:34.905Z,11.47
2019-01-19T16:08:13.512Z,10.50
2019-01-19T16:10:59.625Z,11.53
2019-01-19T16:13:35.326Z,11.90
2019-01-19T16:16:04.993Z,12.10
2019-01-19T16:18:34.661Z,12.17
2019-01-19T16:21:10.400Z,11.20
2019-01-19T16:23:43.027Z,11.00
2019-01-19T16:26:18.702Z,11.07
2019-01-19T16:29:03.389Z,11.37
2019-01-19T16:31:33.110Z,10.77
2019-01-19T16:34:02.876Z,10.90
2019-01-19T16:36:35.669Z,10.83
2019-01-19T16:39:06.192Z,10.73
2019-01-19T16:41:41.652Z,10.03
2019-01-19T16:44:17.115Z,11.80
2019-01-19T16:47:02.063Z,11.63
2019-01-19T16:49:31.745Z,10.93
2019-01-19T16:52:17.962Z,12.07
2019-01-19T16:54:50.458Z,12.10
2019-01-19T16:57:26.262Z,11.33
2019-01-19T16:59:57.739Z,11.37
2019-01-19T17:02:45.890Z,11.53
2019-01-19T17:05:15.601Z,11.97
2019-01-19T17:07:45.369Z,12.17
2019-01-19T17:10:18.007Z,11.30
2019-01-19T17:12:50.750Z,11.60
2019-01-19T17:15:26.508Z,12.70
2019-01-19T17:18:05.857Z,12.67
2019-01-19T17:20:50.593Z,11.93
2019-01-19T17:23:20.266Z,11.90
2019-01-19T17:26:08.232Z,11.83
2019-01-19T17:28:54.704Z,11.37
2019-01-19T17:31:24.373Z,12.07
2019-01-19T17:34:10.890Z,11.67
2019-01-19T17:36:46.509Z,11.43
2019-01-19T17:39:39.978Z,11.83
2019-01-19T17:42:16.629Z,12.80
2019-01-19T17:44:55.450Z,12.03
2019-01-19T17:47:40.421Z,12.63
2019-01-19T17:50:12.407Z,12.40
2019-01-19T17:52:51.390Z,13.30
2019-01-19T17:55:23.950Z,13.73
2019-01-19T17:57:53.605Z,13.20
2019-01-19T18:00:38.369Z,13.53
2019-01-19T18:03:08.263Z,14.17
2019-01-19T18:05:56.269Z,14.63
2019-01-19T18:08:28.965Z,14.40
2019-01-19T18:10:58.679Z,14.83
2019-01-19T18:13:40.568Z,14.73
2019-01-19T18:16:16.052Z,16.20
2019-01-19T18:18:45.842Z,18.43
2019-01-19T18:21:21.874Z,18.27
2019-01-19T18:24:03.515Z,17.97
2019-01-19T18:26:33.224Z,18.87
2019-01-19T18:29:09.775Z,18.80
2019-01-19T18:31:39.443Z,20.03
2019-01-19T18:34:15.059Z,19.63
2019-01-19T18:36:47.733Z,19.73
2019-01-19T18:39:20.426Z,19.73
2019-01-19T18:41:52.926Z,19.87
2019-01-19T18:44:25.639Z,18.33
2019-01-19T18:47:04.230Z,19.40
2019-01-19T18:49:33.909Z,18.43
2019-01-19T18:52:09.926Z,18.77
2019-01-19T18:54:39.609Z,19.43
2019-01-19T18:57:19.272Z,17.77
2019-01-19T18:59:51.594Z,18.23
2019-01-19T19:02:21.277Z,18.40
2019-01-19T19:04:59.953Z,17.33
2019-01-19T19:07:32.669Z,17.17
2019-01-19T19:10:17.444Z,16.93
2019-01-19T19:12:59.372Z,16.93
2019-01-19T19:15:29.055Z,14.43
2019-01-19T19:17:58.778Z,15.53
2019-01-19T19:20:31.215Z,15.83
2019-01-19T19:23:09.818Z,15.40
2019-01-19T19:25:42.430Z,15.70
2019-01-19T19:28:14.757Z,15.53
2019-01-19T19:30:44.408Z,16.33
2019-01-19T19:33:30.969Z,13.97
2019-01-19T19:36:17.421Z,15.30
2019-01-19T19:38:52.965Z,13.97
2019-01-19T19:41:22.615Z,15.57
2019-01-19T19:43:55.353Z,15.30
2019-01-19T19:46:37.301Z,13.97
2019-01-19T19:49:06.999Z,14.03
2019-01-19T19:51:44.881Z,14.60
2019-01-19T19:54:13.074Z,14.33
2019-01-19T19:56:40.725Z,14.83
2019-01-19T19:59:08.988Z,14.00
2019-01-19T20:01:37.217Z,14.30
2019-01-19T20:04:05.470Z,13.00
2019-01-19T20:06:33.741Z,12.33
2019-01-19T20:09:01.951Z,11.83
2019-01-19T20:11:30.926Z,12.33
2019-01-19T20:13:59.132Z,12.30
2019-01-19T20:16:28.950Z,11.10
2019-01-19T20:18:58.880Z,11.73
2019-01-19T20:21:27.053Z,11.73
2019-01-19T20:23:55.234Z,13.37
2019-01-19T20:26:23.501Z,13.23
2019-01-19T20:28:51.745Z,12.37
2019-01-19T20:31:19.927Z,13.23
2019-01-19T20:33:48.895Z,13.90
2019-01-19T20:36:17.671Z,12.53
2019-01-19T20:38:49.018Z,13.27
2019-01-19T20:41:17.325Z,13.13
2019-01-19T20:43:45.975Z,13.57
2019-01-19T20:46:16.460Z,13.60
2019-01-19T20:48:46.610Z,13.43
2019-01-19T20:51:15.789Z,13.17
2019-01-19T20:53:44.049Z,13.83
2019-01-19T20:56:12.886Z,13.37
2019-01-19T20:58:43.059Z,13.53
2019-01-19T21:01:12.553Z,12.90
2019-01-19T21:03:41.599Z,13.47
2019-01-19T21:06:10.066Z,12.67
2019-01-19T21:08:42.448Z,13.47
2019-01-19T21:11:11.878Z,13.60
2019-01-19T21:13:40.262Z,13.40
2019-01-19T21:16:08.859Z,12.97
2019-01-19T21:18:37.614Z,12.40
2019-01-19T21:21:05.768Z,12.63
2019-01-19T21:23:33.904Z,12.60
2019-01-19T21:26:04.186Z,12.63
2019-01-19T21:28:33.502Z,12.93
2019-01-19T21:31:01.683Z,11.70
2019-01-19T21:33:30.015Z,12.43
2019-01-19T21:35:58.166Z,13.20
2019-01-19T21:38:26.349Z,12.33
2019-01-19T21:40:54.479Z,13.10
2019-01-19T21:43:22.639Z,13.10
2019-01-19T21:45:50.778Z,13.13
2019-01-19T21:48:18.881Z,12.57
2019-01-19T21:50:47.026Z,12.50
2019-01-19T21:53:15.172Z,14.63
2019-01-19T21:55:43.312Z,16.73
2019-01-19T21:58:11.418Z,14.80
2019-01-19T22:00:39.602Z,14.07
2019-01-19T22:03:07.742Z,13.83
2019-01-19T22:05:35.983Z,13.97
2019-01-19T22:08:04.194Z,14.63
2019-01-19T22:10:33.432Z,13.33
2019-01-19T22:13:01.611Z,13.70
2019-01-19T22:15:29.885Z,14.57
2019-01-19T22:17:58.098Z,13.37
2019-01-19T22:20:26.312Z,13.47
2019-01-19T22:22:59.088Z,14.40
2019-01-19T22:25:28.616Z,14.60
2019-01-19T22:27:57.952Z,13.93
2019-01-19T22:30:27.299Z,13.77
2019-01-19T22:32:55.751Z,13.53
2019-01-19T22:35:25.597Z,12.00
2019-01-19T22:37:55.564Z,13.67
2019-01-19T22:40:28.099Z,12.07
2019-01-19T22:42:53.965Z,14.73
2019-01-19T22:45:22.261Z,12.43
2019-01-19T22:47:50.418Z,14.97
2019-01-19T22:50:18.996Z,14.70
2019-01-19T22:52:47.120Z,13.03
2019-01-19T22:55:18.781Z,13.93
2019-01-19T22:57:46.952Z,13.93
2019-01-19T23:00:30.154Z,12.90
2019-01-19T23:02:58.257Z,15.07
2019-01-19T23:05:26.402Z,12.60
2019-01-19T23:07:54.532Z,14.00
2019-01-19T23:10:22.650Z,13.57
2019-01-19T23:12:50.769Z,13.70
2019-01-19T23:15:18.910Z,13.03
2019-01-19T23:17:47.102Z,13.23
2019-01-19T23:20:15.565Z,13.47
2019-01-19T23:22:43.698Z,13.60
2019-01-19T23:25:12.122Z,13.10
2019-01-19T23:27:40.335Z,13.93
2019-01-19T23:30:10.109Z,11.93
2019-01-19T23:32:38.288Z,13.00
2019-01-19T23:35:07.497Z,13.73
2019-01-19T23:37:35.613Z,13.27
2019-01-19T23:40:04.976Z,13.03
2019-01-19T23:42:33.088Z,12.87
2019-01-19T23:45:01.257Z,13.93
2019-01-19T23:47:29.445Z,13.20
2019-01-19T23:49:57.647Z,13.43
2019-01-19T23:52:25.756Z,14.10
2019-01-19T23:54:54.006Z,14.77
2019-01-19T23:57:22.186Z,13.93
2019-01-19T23:59:50.313Z,13.80
